Airfield :







YOU CAN JOIN US ON...

 
LOGIN :

Register | Disclaimer

   EN    FR    IT 

 









Legend :    VFR   Marginal VFR   IFR   Intensive IFR   Very Intensive IFR
Visi :
Ceiling :
>= 8 km
>= 3000ft
5 to 8 km
1000 to 3000 ft
1500m to 5 km
500 to 1000 ft
800 to 1500m
200 to 500 ft
< 800m
< 200 ft
Symbols :   Thunderstorms  Fog  Heavy snow  Heavy precipitations  Wind > 20 kt






- Airport Elevation : 577 ft


KVSF - Hartness State (Springfield)

CURRENT METAR :
  • 251754Z AUTO 10005KT 10SM OVC018 02/M01 A3013 RMK AO2 SLP212 T00221011 10028 21033 58042

EXPIRED METARs :
  • 251654Z AUTO 06004KT 10SM OVC019 02/M02 A3017 RMK AO2 SLP226 T00221017
  • 251554Z AUTO 02003KT 10SM OVC021 02/M03 A3022 RMK AO2 SLP241 T00171028
  • 251454Z AUTO 00000KT 8SM OVC025 M01/M04 A3026 RMK AO2 SLP255 T10061039 58010

TAF N/A



MET'MAP, your aeronautical weather chart ! - Copyright ORBIFLY December 2007 - Disclaimer

ORBIFLY MET'MAP TEAM :

Programming & Development : Alexandra Zaïnal
Concept & original design : Baudouin d'Aumeries
Assistance for programming : Marc-Olivier Méhu
Technical & hardware support : Manuel Goepfert

Contact : metmap@orbifly.com




SOURCES & CREDITS :

   NOAA